createdAt,value
2022-08-05T00:00:23.964Z,21.54
2022-08-05T00:02:54.171Z,21.46
2022-08-05T00:06:01.903Z,21.49
2022-08-05T00:08:32.740Z,21.41
2022-08-05T00:11:01.520Z,21.39
2022-08-05T00:13:39.284Z,21.41
2022-08-05T00:16:12.403Z,21.34
2022-08-05T00:18:44.315Z,21.28
2022-08-05T00:21:14.823Z,21.14
2022-08-05T00:23:46.657Z,21.04
2022-08-05T00:26:22.287Z,20.74
2022-08-05T00:28:50.993Z,20.33
2022-08-05T00:31:54.085Z,20.12
2022-08-05T00:34:56.204Z,20.07
2022-08-05T00:37:11.837Z,19.91
2022-08-05T00:39:57.321Z,19.90
2022-08-05T00:42:34.559Z,19.86
2022-08-05T00:45:03.394Z,19.87
2022-08-05T00:47:56.263Z,19.87
2022-08-05T00:50:20.950Z,20.00
2022-08-05T00:52:50.538Z,20.04
2022-08-05T00:55:21.464Z,20.11
2022-08-05T00:57:58.569Z,20.08
2022-08-05T01:00:27.963Z,20.03
2022-08-05T01:02:56.470Z,19.77
2022-08-05T01:05:24.951Z,19.36
2022-08-05T01:08:39.925Z,19.11
2022-08-05T01:10:52.845Z,19.10
2022-08-05T01:13:27.231Z,19.04
2022-08-05T01:16:26.107Z,18.94
2022-08-05T01:19:01.789Z,18.89
2022-08-05T01:21:58.927Z,18.87
2022-08-05T01:24:43.141Z,18.91
2022-08-05T01:27:26.970Z,19.06
2022-08-05T01:30:03.719Z,19.12
2022-08-05T01:32:34.747Z,18.97
2022-08-05T01:35:10.417Z,18.89
2022-08-05T01:37:45.218Z,18.79
2022-08-05T01:40:17.882Z,18.84
2022-08-05T01:42:47.610Z,18.81
2022-08-05T01:45:17.879Z,18.86
2022-08-05T01:47:54.333Z,18.90
2022-08-05T01:50:37.215Z,18.93
2022-08-05T01:53:12.863Z,19.04
2022-08-05T01:55:45.054Z,18.93
2022-08-05T01:58:40.536Z,18.91
2022-08-05T02:01:05.540Z,18.83
2022-08-05T02:03:40.611Z,18.93
2022-08-05T02:06:37.369Z,18.96
2022-08-05T02:08:59.353Z,19.14
2022-08-05T02:11:34.165Z,19.01
2022-08-05T02:14:12.550Z,18.96
2022-08-05T02:16:52.185Z,19.04
2022-08-05T02:19:34.274Z,18.94
2022-08-05T02:22:06.493Z,18.96
2022-08-05T02:24:38.648Z,18.84
2022-08-05T02:27:12.333Z,18.80
2022-08-05T02:29:59.849Z,18.77
2022-08-05T02:32:32.785Z,18.77
2022-08-05T02:35:13.840Z,18.76
2022-08-05T02:37:47.859Z,18.76
2022-08-05T02:40:24.309Z,18.80
2022-08-05T02:42:55.238Z,18.83
2022-08-05T02:45:25.461Z,18.91
2022-08-05T02:48:06.466Z,18.86
2022-08-05T02:50:39.250Z,18.84
2022-08-05T02:53:19.229Z,18.97
2022-08-05T02:55:53.826Z,18.93
2022-08-05T02:58:26.761Z,18.94
2022-08-05T03:00:57.538Z,18.74
2022-08-05T03:03:34.151Z,18.77
2022-08-05T03:06:56.030Z,18.77
2022-08-05T03:09:07.736Z,18.76
2022-08-05T03:11:55.420Z,18.69
2022-08-05T03:14:23.891Z,18.53
2022-08-05T03:16:54.455Z,18.56
2022-08-05T03:19:33.863Z,18.48
2022-08-05T03:22:03.240Z,18.46
2022-08-05T03:24:33.765Z,18.45
2022-08-05T03:27:02.844Z,18.25
2022-08-05T03:29:45.378Z,18.22
2022-08-05T03:32:31.098Z,18.28
2022-08-05T03:35:01.024Z,18.35
2022-08-05T03:37:41.650Z,18.31
2022-08-05T03:40:31.313Z,18.28
2022-08-05T03:43:01.322Z,18.37
2022-08-05T03:45:57.386Z,18.29
2022-08-05T03:48:27.349Z,18.29
2022-08-05T03:52:37.668Z,18.17
2022-08-05T03:55:50.264Z,18.12
2022-08-05T03:56:46.569Z,18.15
2022-08-05T03:59:20.385Z,18.10
2022-08-05T04:01:52.214Z,18.11
2022-08-05T04:04:22.631Z,18.15
2022-08-05T04:06:56.693Z,18.03
2022-08-05T04:09:26.567Z,18.03
2022-08-05T04:11:56.420Z,18.08
2022-08-05T04:14:30.421Z,18.14
2022-08-05T04:17:00.863Z,18.01
2022-08-05T04:19:31.275Z,18.04
2022-08-05T04:22:09.158Z,18.12
2022-08-05T04:24:44.453Z,18.12
2022-08-05T04:27:41.801Z,18.27
2022-08-05T04:30:10.276Z,18.37
2022-08-05T04:32:38.084Z,18.46
2022-08-05T04:35:17.559Z,18.49
2022-08-05T04:38:00.850Z,18.34
2022-08-05T04:40:30.131Z,18.45
2022-08-05T04:42:58.050Z,18.32
2022-08-05T04:45:47.733Z,18.29
2022-08-05T04:48:18.593Z,18.32
2022-08-05T04:51:02.736Z,18.51
2022-08-05T04:53:39.588Z,18.15
2022-08-05T04:56:32.790Z,17.89
2022-08-05T04:58:57.473Z,17.90
2022-08-05T05:01:33.469Z,17.79
2022-08-05T05:04:13.703Z,17.93
2022-08-05T05:06:49.294Z,18.11
2022-08-05T05:09:21.569Z,18.15
2022-08-05T05:11:54.652Z,18.17
2022-08-05T05:14:28.023Z,18.08
2022-08-05T05:17:00.497Z,18.25
2022-08-05T05:19:36.776Z,18.12
2022-08-05T05:22:24.472Z,18.22
2022-08-05T05:24:56.886Z,17.93
2022-08-05T05:27:44.376Z,18.11
2022-08-05T05:30:15.342Z,18.00
2022-08-05T05:32:56.753Z,17.93
2022-08-05T05:35:25.444Z,17.98
2022-08-05T05:38:01.828Z,17.89
2022-08-05T05:40:32.563Z,17.86
2022-08-05T05:43:02.568Z,17.87
2022-08-05T05:45:30.628Z,17.89
2022-08-05T05:48:06.410Z,17.87
2022-08-05T05:50:41.317Z,17.90
2022-08-05T05:53:21.255Z,17.86
2022-08-05T05:56:00.885Z,17.80
2022-08-05T05:58:32.441Z,17.75
2022-08-05T06:01:12.129Z,17.83
2022-08-05T06:04:00.648Z,17.83
2022-08-05T06:06:31.097Z,17.82
2022-08-05T06:09:01.153Z,17.83
2022-08-05T06:11:30.672Z,17.77
2022-08-05T06:14:00.306Z,17.77
2022-08-05T06:16:32.690Z,17.68
2022-08-05T06:19:06.949Z,17.62
2022-08-05T06:21:36.668Z,17.62
2022-08-05T06:24:07.745Z,17.42
2022-08-05T06:26:51.557Z,17.35
2022-08-05T06:29:25.126Z,17.39
2022-08-05T06:32:20.876Z,17.42
2022-08-05T06:34:56.727Z,17.28
2022-08-05T06:37:52.250Z,17.35
2022-08-05T06:40:18.493Z,17.39
2022-08-05T06:42:51.955Z,17.43
2022-08-05T06:45:44.634Z,17.46
2022-08-05T06:48:44.092Z,17.62
2022-08-05T06:50:58.516Z,17.53
2022-08-05T06:53:29.142Z,17.75
2022-08-05T06:55:58.287Z,17.79
2022-08-05T06:58:35.361Z,17.66
2022-08-05T07:01:06.870Z,17.65
2022-08-05T07:03:35.767Z,17.89
2022-08-05T07:06:06.114Z,17.93
2022-08-05T07:08:47.928Z,17.89
2022-08-05T07:11:21.906Z,17.72
2022-08-05T07:14:20.202Z,17.79
2022-08-05T07:18:08.589Z,17.77
2022-08-05T07:20:31.427Z,17.66
2022-08-05T07:22:36.253Z,17.70
2022-08-05T07:25:23.418Z,17.66
2022-08-05T07:27:58.296Z,17.46
2022-08-05T07:30:33.986Z,17.56
2022-08-05T07:33:04.997Z,17.55
2022-08-05T07:36:04.593Z,17.80
2022-08-05T07:38:32.234Z,17.90
2022-08-05T07:42:09.069Z,18.18
2022-08-05T07:43:53.134Z,18.00
2022-08-05T07:46:26.521Z,17.66
2022-08-05T07:49:02.628Z,17.73
2022-08-05T07:51:40.942Z,17.77
2022-08-05T07:54:26.209Z,17.72
2022-08-05T07:57:01.306Z,17.53
2022-08-05T07:59:42.925Z,17.49
2022-08-05T08:02:17.131Z,17.61
2022-08-05T08:04:48.277Z,17.38
2022-08-05T08:07:17.892Z,17.36
2022-08-05T08:09:46.816Z,17.43
2022-08-05T08:12:37.318Z,17.55
2022-08-05T08:15:04.844Z,17.66
2022-08-05T08:17:39.173Z,17.68
2022-08-05T08:20:42.704Z,17.82
2022-08-05T08:23:03.783Z,17.87
2022-08-05T08:26:00.350Z,17.96
2022-08-05T08:28:36.730Z,17.90
2022-08-05T08:31:06.137Z,17.82
2022-08-05T08:33:37.939Z,17.86
2022-08-05T08:38:56.853Z,17.76
2022-08-05T08:41:51.055Z,17.69
2022-08-05T08:45:20.711Z,17.68
2022-08-05T08:47:48.137Z,17.46
2022-08-05T08:50:31.930Z,17.59
2022-08-05T08:52:55.871Z,17.77
2022-08-05T08:55:32.046Z,17.65
2022-08-05T08:58:13.235Z,17.66
2022-08-05T09:00:44.365Z,17.62
2022-08-05T09:03:16.219Z,17.66
2022-08-05T09:06:08.148Z,17.72
2022-08-05T09:08:40.163Z,17.82
2022-08-05T09:11:13.699Z,17.61
2022-08-05T09:14:09.517Z,17.17
2022-08-05T09:16:32.168Z,16.90
2022-08-05T09:19:00.221Z,16.81
2022-08-05T09:22:22.776Z,16.87
2022-08-05T09:24:18.002Z,16.87
2022-08-05T09:26:51.697Z,16.87
2022-08-05T09:29:20.218Z,17.14
2022-08-05T09:32:43.067Z,17.59
2022-08-05T09:34:52.597Z,17.41
2022-08-05T09:38:12.454Z,17.43
2022-08-05T09:40:30.546Z,17.61
2022-08-05T09:43:01.382Z,17.43
2022-08-05T09:46:07.278Z,17.49
2022-08-05T09:48:27.102Z,17.68
2022-08-05T09:50:59.074Z,17.48
2022-08-05T09:53:54.725Z,17.62
2022-08-05T09:56:26.340Z,18.01
2022-08-05T09:58:59.161Z,17.83
2022-08-05T10:01:32.561Z,17.87
2022-08-05T10:04:04.220Z,17.86
2022-08-05T10:06:40.536Z,18.01
2022-08-05T10:09:27.443Z,17.84
2022-08-05T10:12:30.073Z,17.96
2022-08-05T10:15:17.198Z,18.15
2022-08-05T10:17:54.442Z,18.08
2022-08-05T10:20:27.006Z,17.49
2022-08-05T10:22:55.984Z,17.14
2022-08-05T10:25:28.483Z,16.73
2022-08-05T10:28:12.980Z,16.61
2022-08-05T10:32:47.512Z,16.83
2022-08-05T10:33:36.081Z,16.90
2022-08-05T10:36:05.472Z,16.81
2022-08-05T10:38:35.443Z,16.86
2022-08-05T10:41:08.714Z,16.86
2022-08-05T10:43:48.705Z,16.99
2022-08-05T10:46:18.908Z,17.04
2022-08-05T10:49:02.778Z,16.94
2022-08-05T10:51:53.050Z,16.89
2022-08-05T10:54:56.545Z,17.04
2022-08-05T10:57:32.067Z,17.13
2022-08-05T11:00:18.707Z,17.17
2022-08-05T11:03:25.859Z,17.24
2022-08-05T11:06:06.211Z,17.20
2022-08-05T11:08:39.247Z,17.13
2022-08-05T11:11:44.608Z,17.13
2022-08-05T11:14:57.861Z,17.07
2022-08-05T11:17:56.777Z,17.24
2022-08-05T11:20:34.523Z,17.69
2022-08-05T11:23:33.725Z,17.98
2022-08-05T11:26:28.207Z,17.76
2022-08-05T11:28:59.402Z,18.04
2022-08-05T11:31:57.147Z,17.79
2022-08-05T11:34:37.857Z,17.86
2022-08-05T11:38:28.728Z,17.93
2022-08-05T11:40:00.626Z,18.24
2022-08-05T11:42:40.560Z,18.17
2022-08-05T11:45:14.232Z,18.46
2022-08-05T11:47:56.262Z,18.41
2022-08-05T11:50:25.749Z,18.28
2022-08-05T11:52:57.749Z,18.31
2022-08-05T11:55:31.563Z,18.22
2022-08-05T11:58:09.677Z,18.29
2022-08-05T12:00:41.567Z,18.04
2022-08-05T12:03:29.309Z,17.96
2022-08-05T12:06:02.696Z,18.04
2022-08-05T12:08:32.839Z,18.25
2022-08-05T12:11:06.007Z,18.41
2022-08-05T12:13:49.684Z,18.66
2022-08-05T12:16:25.717Z,18.70
2022-08-05T12:18:57.058Z,18.91
2022-08-05T12:21:30.187Z,18.90
2022-08-05T12:24:04.921Z,18.96
2022-08-05T12:26:34.560Z,19.18
2022-08-05T12:29:03.550Z,19.28
2022-08-05T12:31:42.399Z,19.42
2022-08-05T12:34:21.569Z,19.48
2022-08-05T12:36:53.707Z,19.31
2022-08-05T12:39:23.490Z,18.72
2022-08-05T12:41:59.516Z,19.11
2022-08-05T12:44:33.220Z,19.39
2022-08-05T12:47:03.717Z,19.34
2022-08-05T12:50:04.747Z,19.58
2022-08-05T12:52:41.668Z,19.87
2022-08-05T12:55:23.632Z,20.87
2022-08-05T12:58:50.934Z,20.88
2022-08-05T13:01:59.951Z,21.41
2022-08-05T13:03:33.514Z,21.59
2022-08-05T13:06:03.199Z,21.00
2022-08-05T13:08:32.822Z,21.05
2022-08-05T13:11:01.693Z,21.54
2022-08-05T13:14:04.840Z,21.87
2022-08-05T13:16:20.255Z,21.70
2022-08-05T13:18:52.969Z,21.54
2022-08-05T13:21:27.726Z,21.83
2022-08-05T13:24:05.593Z,22.02
2022-08-05T13:26:33.659Z,23.12
2022-08-05T13:29:01.914Z,22.88
2022-08-05T13:31:34.018Z,24.60
2022-08-05T13:34:22.858Z,24.05
2022-08-05T13:36:55.081Z,23.69
2022-08-05T13:40:12.861Z,23.26
2022-08-05T13:42:15.020Z,22.38
2022-08-05T13:44:45.703Z,22.29
2022-08-05T13:47:34.557Z,21.63
2022-08-05T13:50:04.480Z,21.35
2022-08-05T13:52:35.574Z,21.39
2022-08-05T13:55:07.915Z,21.84
2022-08-05T13:57:48.757Z,22.09
2022-08-05T14:00:27.477Z,22.14
2022-08-05T14:02:56.830Z,21.78
2022-08-05T14:05:48.084Z,21.34
2022-08-05T14:08:20.052Z,20.83
2022-08-05T14:10:49.761Z,20.46
2022-08-05T14:13:17.748Z,20.66
2022-08-05T14:16:04.935Z,20.85
2022-08-05T14:18:38.018Z,21.26
2022-08-05T14:22:07.491Z,21.78
2022-08-05T14:23:55.870Z,21.78
2022-08-05T14:26:36.995Z,22.04
2022-08-05T14:29:16.173Z,25.05
2022-08-05T14:32:02.505Z,27.18
2022-08-05T14:34:35.652Z,28.32
2022-08-05T14:37:04.683Z,28.94
2022-08-05T14:39:49.637Z,30.01
2022-08-05T14:42:23.331Z,29.72
2022-08-05T14:44:53.248Z,29.40
2022-08-05T14:47:58.364Z,30.32
2022-08-05T14:50:18.359Z,29.90
2022-08-05T14:52:53.479Z,26.39
2022-08-05T14:55:38.501Z,24.44
2022-08-05T14:58:10.912Z,22.83
2022-08-05T15:00:58.459Z,22.67
2022-08-05T15:03:33.092Z,22.19
2022-08-05T15:06:07.314Z,21.57
2022-08-05T15:08:58.075Z,21.84
2022-08-05T15:11:51.372Z,21.77
2022-08-05T15:14:33.641Z,21.95
2022-08-05T15:17:05.469Z,22.63
2022-08-05T15:19:49.137Z,23.02
2022-08-05T15:22:21.542Z,23.60
2022-08-05T15:24:49.501Z,23.52
2022-08-05T15:27:19.825Z,24.99
2022-08-05T15:29:48.038Z,24.84
2022-08-05T15:32:17.092Z,24.90
2022-08-05T15:34:45.076Z,27.36
2022-08-05T15:37:14.837Z,28.72
2022-08-05T15:41:01.187Z,28.01
2022-08-05T15:42:55.643Z,26.73
2022-08-05T15:45:37.990Z,25.22
2022-08-05T15:48:07.161Z,23.60
2022-08-05T15:50:35.270Z,22.39
2022-08-05T15:53:05.227Z,22.12
2022-08-05T15:56:03.955Z,22.11
2022-08-05T15:58:23.452Z,21.69
2022-08-05T16:01:11.606Z,21.93
2022-08-05T16:03:41.155Z,21.94
2022-08-05T16:06:11.408Z,21.71
2022-08-05T16:08:39.967Z,22.00
2022-08-05T16:11:08.573Z,24.80
2022-08-05T16:13:38.151Z,23.14
2022-08-05T16:16:06.291Z,23.53
2022-08-05T16:18:34.413Z,23.91
2022-08-05T16:21:04.354Z,25.75
2022-08-05T16:23:54.193Z,24.25
2022-08-05T16:26:26.370Z,27.22
2022-08-05T16:28:56.571Z,27.63
2022-08-05T16:31:24.994Z,26.87
2022-08-05T16:33:53.712Z,25.25
2022-08-05T16:36:24.010Z,24.00
2022-08-05T16:38:55.569Z,26.47
2022-08-05T16:42:14.563Z,26.58
2022-08-05T16:44:15.401Z,26.84
2022-08-05T16:46:55.871Z,26.90
2022-08-05T16:49:26.344Z,27.43
2022-08-05T16:51:56.892Z,26.18
2022-08-05T16:54:29.010Z,25.92
2022-08-05T16:57:01.575Z,25.51
2022-08-05T16:59:31.610Z,23.36
2022-08-05T17:02:00.862Z,25.04
2022-08-05T17:04:29.239Z,25.92
2022-08-05T17:07:01.053Z,25.81
2022-08-05T17:09:30.066Z,24.44
2022-08-05T17:11:59.379Z,23.49
2022-08-05T17:14:34.307Z,23.16
2022-08-05T17:17:14.460Z,22.61
2022-08-05T17:19:45.503Z,22.22
2022-08-05T17:22:17.746Z,21.53
2022-08-05T17:24:57.525Z,21.46
2022-08-05T17:27:27.411Z,21.12
2022-08-05T17:30:02.448Z,21.17
2022-08-05T17:32:33.819Z,21.18
2022-08-05T17:35:03.278Z,21.14
2022-08-05T17:37:40.788Z,21.19
2022-08-05T17:40:15.429Z,21.21
2022-08-05T17:42:50.526Z,20.77
2022-08-05T17:45:21.806Z,20.56
2022-08-05T17:47:55.306Z,20.49
2022-08-05T17:50:28.327Z,20.40
2022-08-05T17:53:01.383Z,20.33
2022-08-05T17:55:37.199Z,20.33
2022-08-05T17:58:09.570Z,20.01
2022-08-05T18:00:40.914Z,19.97
2022-08-05T18:03:27.993Z,20.08
2022-08-05T18:06:04.905Z,19.91
2022-08-05T18:08:33.880Z,19.70
2022-08-05T18:11:03.283Z,19.66
2022-08-05T18:13:36.911Z,19.55
2022-08-05T18:16:14.505Z,19.34
2022-08-05T18:18:50.227Z,19.22
2022-08-05T18:21:21.239Z,19.31
2022-08-05T18:23:53.681Z,19.15
2022-08-05T18:26:29.313Z,19.07
2022-08-05T18:29:00.007Z,19.12
2022-08-05T18:31:32.951Z,19.03
2022-08-05T18:34:05.988Z,18.89
2022-08-05T18:36:36.386Z,18.81
2022-08-05T18:39:06.504Z,18.63
2022-08-05T18:42:00.750Z,18.59
2022-08-05T18:44:35.124Z,18.34
2022-08-05T18:47:15.753Z,18.28
2022-08-05T18:50:10.696Z,18.27
2022-08-05T18:52:41.779Z,18.17
2022-08-05T18:55:22.411Z,18.07
2022-08-05T18:57:53.369Z,17.96
2022-08-05T19:00:28.693Z,17.93
2022-08-05T19:03:03.759Z,17.86
2022-08-05T19:06:11.285Z,17.83
2022-08-05T19:08:30.549Z,17.72
2022-08-05T19:11:04.621Z,17.55
2022-08-05T19:13:35.619Z,17.43
2022-08-05T19:16:25.324Z,17.43
2022-08-05T19:18:56.806Z,17.35
2022-08-05T19:21:29.533Z,17.24
2022-08-05T19:24:05.634Z,17.15
2022-08-05T19:26:43.899Z,17.15
2022-08-05T19:29:26.633Z,17.04
2022-08-05T19:32:03.746Z,17.07
2022-08-05T19:34:32.605Z,16.99
2022-08-05T19:37:02.116Z,16.97
2022-08-05T19:39:31.939Z,16.84
2022-08-05T19:42:15.326Z,16.87
2022-08-05T19:44:45.192Z,16.83
2022-08-05T19:47:16.145Z,16.75
2022-08-05T19:49:45.185Z,16.73
2022-08-05T19:52:31.533Z,16.58
2022-08-05T19:55:07.074Z,16.61
2022-08-05T19:58:10.396Z,16.56
2022-08-05T20:00:38.271Z,16.42
2022-08-05T20:03:08.533Z,16.38
2022-08-05T20:05:43.200Z,16.16
2022-08-05T20:08:19.194Z,15.99
2022-08-05T20:10:49.763Z,15.99
2022-08-05T20:13:18.187Z,16.13
2022-08-05T20:15:59.760Z,16.01
2022-08-05T20:18:32.718Z,16.21
2022-08-05T20:21:02.192Z,16.31
2022-08-05T20:23:39.703Z,16.27
2022-08-05T20:26:18.962Z,16.10
2022-08-05T20:28:48.605Z,16.13
2022-08-05T20:31:17.780Z,16.42
2022-08-05T20:33:50.197Z,16.31
2022-08-05T20:36:19.048Z,16.25
2022-08-05T20:38:54.176Z,16.27
2022-08-05T20:41:43.204Z,16.38
2022-08-05T20:44:18.649Z,16.38
2022-08-05T20:46:57.834Z,16.41
2022-08-05T20:49:26.259Z,16.29
2022-08-05T20:51:54.929Z,16.38
2022-08-05T20:54:25.387Z,16.38
2022-08-05T20:56:53.492Z,16.29
2022-08-05T20:59:26.968Z,16.27
2022-08-05T21:02:10.074Z,16.18
2022-08-05T21:04:39.112Z,16.11
2022-08-05T21:07:08.977Z,16.14
2022-08-05T21:09:38.520Z,16.11
2022-08-05T21:12:21.703Z,15.97
2022-08-05T21:14:54.751Z,15.90
2022-08-05T21:17:25.722Z,15.89
2022-08-05T21:19:56.487Z,15.81
2022-08-05T21:22:26.880Z,15.85
2022-08-05T21:24:57.775Z,15.76
2022-08-05T21:27:27.457Z,15.68
2022-08-05T21:29:55.834Z,15.58
2022-08-05T21:32:27.171Z,15.52
2022-08-05T21:35:18.027Z,15.54
2022-08-05T21:37:52.927Z,15.37
2022-08-05T21:40:23.389Z,15.23
2022-08-05T21:42:52.066Z,15.16
2022-08-05T21:45:24.718Z,15.04
2022-08-05T21:47:57.741Z,14.99
2022-08-05T21:50:26.555Z,14.92
2022-08-05T21:52:58.923Z,15.02
2022-08-05T21:55:43.107Z,15.00
2022-08-05T21:58:24.965Z,15.00
2022-08-05T22:01:00.879Z,14.85
2022-08-05T22:03:52.543Z,14.76
2022-08-05T22:06:22.443Z,14.82
2022-08-05T22:08:52.006Z,14.80
2022-08-05T22:11:35.549Z,14.65
2022-08-05T22:14:33.200Z,14.68
2022-08-05T22:16:53.061Z,14.55
2022-08-05T22:20:03.033Z,14.54
2022-08-05T22:22:15.527Z,14.58
2022-08-05T22:25:01.262Z,14.27
2022-08-05T22:28:05.061Z,14.33
2022-08-05T22:30:35.162Z,14.35
2022-08-05T22:33:15.882Z,14.41
2022-08-05T22:35:49.208Z,14.31
2022-08-05T22:38:18.862Z,14.33
2022-08-05T22:40:49.642Z,14.12
2022-08-05T22:43:36.593Z,14.08
2022-08-05T22:46:12.265Z,14.12
2022-08-05T22:48:51.562Z,14.00
2022-08-05T22:51:23.198Z,14.21
2022-08-05T22:54:07.813Z,14.18
2022-08-05T22:56:35.850Z,14.18
2022-08-05T22:59:45.458Z,14.16
2022-08-05T23:02:05.959Z,14.08
2022-08-05T23:04:36.501Z,14.00
2022-08-05T23:07:05.695Z,13.81
2022-08-05T23:09:57.826Z,13.87
2022-08-05T23:12:24.463Z,13.89
2022-08-05T23:14:53.951Z,13.86
2022-08-05T23:17:34.902Z,13.61
2022-08-05T23:20:16.735Z,13.64
2022-08-05T23:22:47.612Z,13.53
2022-08-05T23:25:52.910Z,13.41
2022-08-05T23:28:07.038Z,13.31
2022-08-05T23:30:40.437Z,13.36
2022-08-05T23:33:22.377Z,13.40
2022-08-05T23:36:01.337Z,13.40
2022-08-05T23:38:29.450Z,13.40
2022-08-05T23:40:57.721Z,13.57
2022-08-05T23:43:37.389Z,13.46
2022-08-05T23:46:20.087Z,13.31
2022-08-05T23:49:00.304Z,13.20
2022-08-05T23:51:51.723Z,13.34
2022-08-05T23:54:25.878Z,13.24
2022-08-05T23:57:03.494Z,13.23
